Time;durP1;ratioP1;P1;durP2;ratioP2;P2;SDS_P1;SDS_P2;PMS_P1;PMS_P2;Temp;Humidity;BMP_temperature;BMP_pressure;BME280_temperature;BME280_humidity;BME280_pressure;Samples;Min_cycle;Max_cycle;Signal;HPM_P1;HPM_P2
2022/10/25 00:01:37;;;;;;;153.10;83.35;;;;;;;12.78;92.90;94540.64;1559986;89;21900;-52
2022/10/25 00:04:05;;;;;;;145.12;84.15;;;;;;;12.79;92.84;94533.88;1524600;90;21160;-50
2022/10/25 00:06:32;;;;;;;144.82;85.60;;;;;;;12.83;92.40;94544.74;1544033;92;21015;-50
2022/10/25 00:08:58;;;;;;;145.75;85.22;;;;;;;12.83;92.46;94541.98;1539267;92;21062;-52
2022/10/25 00:11:27;;;;;;;141.92;84.00;;;;;;;12.84;92.21;94537.38;1545004;92;21082;-51
2022/10/25 00:13:59;;;;;;;144.62;83.97;;;;;;;12.85;92.28;94531.23;1549264;91;21318;-51
2022/10/25 00:16:30;;;;;;;145.12;82.15;;;;;;;12.82;91.87;94532.17;1556817;89;21058;-52
2022/10/25 00:18:56;;;;;;;137.95;81.65;;;;;;;12.81;92.14;94529.26;1554157;90;21123;-50
2022/10/25 00:21:24;;;;;;;141.85;82.45;;;;;;;12.82;91.92;94515.61;1559527;90;21067;-51
2022/10/25 00:23:51;;;;;;;145.28;84.83;;;;;;;12.80;92.09;94518.84;1553372;90;21014;-51
2022/10/25 00:26:19;;;;;;;127.42;75.40;;;;;;;12.78;91.83;94526.84;1525681;92;21418;-51
2022/10/25 00:28:46;;;;;;;151.18;82.50;;;;;;;12.69;91.80;94532.38;1547263;90;21050;-52
2022/10/25 00:31:15;;;;;;;136.25;80.42;;;;;;;12.57;91.85;94530.56;1558327;89;21229;-51
2022/10/25 00:33:42;;;;;;;147.25;83.80;;;;;;;12.49;92.08;94514.80;1537259;92;21063;-51
2022/10/25 00:36:15;;;;;;;148.62;86.30;;;;;;;12.44;92.44;94522.33;1541671;92;21115;-51
2022/10/25 00:38:44;;;;;;;145.95;88.17;;;;;;;12.42;92.84;94511.63;1549162;92;21247;-51
2022/10/25 00:41:14;;;;;;;143.85;86.47;;;;;;;12.41;93.15;94513.61;1549381;92;21002;-51
2022/10/25 00:43:49;;;;;;;139.15;83.58;;;;;;;12.43;93.38;94518.05;1535587;92;21063;-50
2022/10/25 00:46:25;;;;;;;144.13;85.80;;;;;;;12.44;93.38;94507.16;1549445;90;21007;-51
2022/10/25 00:49:11;;;;;;;144.43;80.77;;;;;;;12.46;93.69;94515.73;1548351;91;21035;-52
2022/10/25 00:51:45;;;;;;;140.85;81.82;;;;;;;12.50;94.05;94509.46;1560173;90;21294;-51
2022/10/25 00:54:17;;;;;;;150.22;78.37;;;;;;;12.49;93.42;94514.80;1555261;91;21078;-52
2022/10/25 00:56:45;;;;;;;;;;;;;;;12.46;93.40;94502.57;1558014;89;21030;-52
2022/10/25 00:59:15;;;;;;;124.87;73.97;;;;;;;12.48;93.42;94502.23;1524471;92;20185;-51
2022/10/25 01:01:41;;;;;;;142.20;83.95;;;;;;;12.47;93.84;94500.70;1558662;90;21150;-50
2022/10/25 01:04:12;;;;;;;144.10;79.72;;;;;;;12.47;93.38;94506.86;1560686;91;21519;-51
2022/10/25 01:06:41;;;;;;;119.50;70.47;;;;;;;12.44;93.64;94507.16;1556171;90;21269;-50
2022/10/25 01:09:10;;;;;;;123.65;72.97;;;;;;;12.45;93.53;94519.72;1558433;90;21486;-51
2022/10/25 01:11:38;;;;;;;121.33;70.32;;;;;;;12.38;93.42;94507.64;1520704;92;21147;-51
2022/10/25 01:14:05;;;;;;;128.05;72.97;;;;;;;12.36;93.69;94512.87;1546232;92;20979;-51
2022/10/25 01:16:47;;;;;;;118.45;69.35;;;;;;;12.32;93.99;94505.37;1546805;89;21042;-50
2022/10/25 01:20:01;;;;;;;119.67;66.67;;;;;;;12.32;94.26;94504.59;1549327;91;21013;-52
2022/10/25 01:22:56;;;;;;;96.90;58.90;;;;;;;12.34;94.47;94500.75;1554544;89;26389;-51
2022/10/25 01:26:03;;;;;;;121.28;65.45;;;;;;;12.41;94.95;94501.20;1543788;92;21114;-50
2022/10/25 01:29:15;;;;;;;110.57;66.17;;;;;;;12.46;94.64;94495.04;1565012;90;21066;-51
2022/10/25 01:31:51;;;;;;;101.87;64.27;;;;;;;12.41;94.20;94498.44;1550774;90;21370;-51
2022/10/25 01:34:35;;;;;;;104.83;61.70;;;;;;;12.37;94.58;94488.78;1556991;89;21051;-50
2022/10/25 01:37:29;;;;;;;112.17;62.83;;;;;;;12.41;94.51;94479.12;1559972;90;21007;-51
2022/10/25 01:40:06;;;;;;;113.75;63.65;;;;;;;12.44;94.50;94485.09;1553742;89;21151;-51
2022/10/25 01:42:50;;;;;;;118.55;70.05;;;;;;;12.48;94.42;94482.17;1525204;92;20999;-52
2022/10/25 01:45:28;;;;;;;107.80;64.77;;;;;;;12.47;94.20;94479.27;1525766;91;21899;-51
2022/10/25 01:48:04;;;;;;;106.80;63.58;;;;;;;12.45;94.39;94471.44;1569084;90;21315;-52
2022/10/25 01:50:35;;;;;;;105.37;63.28;;;;;;;12.48;94.37;94463.61;1543842;90;21078;-51
2022/10/25 01:53:01;;;;;;;109.78;64.25;;;;;;;12.51;94.15;94454.42;1565692;90;21066;-51
2022/10/25 01:55:36;;;;;;;98.47;60.33;;;;;;;12.53;93.92;94458.08;1555160;89;21120;-51
2022/10/25 01:58:15;;;;;;;108.80;65.67;;;;;;;12.52;93.71;94464.23;1552487;91;21291;-51
2022/10/25 02:00:55;;;;;;;114.62;66.95;;;;;;;12.43;93.42;94467.01;1542902;91;21039;-52
2022/10/25 02:03:33;;;;;;;111.72;63.45;;;;;;;12.35;93.42;94458.14;1570386;89;20991;-52
2022/10/25 02:06:26;;;;;;;106.83;63.15;;;;;;;12.32;93.58;94466.76;1563493;90;21201;-52
2022/10/25 02:09:06;;;;;;;112.47;63.60;;;;;;;12.27;93.60;94461.09;1544073;91;21040;-51
2022/10/25 02:11:33;;;;;;;101.40;63.50;;;;;;;12.22;93.88;94458.34;1542219;92;21150;-52
2022/10/25 02:14:35;;;;;;;108.30;62.75;;;;;;;12.16;93.96;94456.08;1525198;92;21102;-51
2022/10/25 02:17:16;;;;;;;96.78;59.60;;;;;;;12.13;94.33;94459.77;1546301;91;21035;-51
2022/10/25 02:19:49;;;;;;;;;;;;;;;12.16;94.48;94457.45;1542728;92;21023;-51
2022/10/25 02:22:17;;;;;;;94.87;58.70;;;;;;;12.14;94.28;94463.27;1522342;92;20452;-51
2022/10/25 02:24:45;;;;;;;112.83;63.80;;;;;;;12.03;94.39;94465.73;1522386;92;21243;-51
2022/10/25 02:27:12;;;;;;;97.33;60.40;;;;;;;11.94;94.63;94457.50;1559041;90;21011;-52
2022/10/25 02:29:39;;;;;;;116.15;62.20;;;;;;;11.91;94.95;94467.45;1553614;91;21479;-52
2022/10/25 02:32:06;;;;;;;105.75;62.03;;;;;;;11.93;95.24;94469.75;1559842;89;21093;-52
2022/10/25 02:34:33;;;;;;;114.90;68.75;;;;;;;11.95;95.41;94457.05;1559625;90;21107;-50
2022/10/25 02:37:00;;;;;;;120.75;67.08;;;;;;;11.98;95.89;94458.88;1536727;92;21134;-52
2022/10/25 02:39:27;;;;;;;126.58;68.62;;;;;;;12.07;96.13;94451.20;1523426;92;21199;-51
2022/10/25 02:41:54;;;;;;;100.38;60.10;;;;;;;12.13;95.97;94455.62;1552082;89;21003;-51
2022/10/25 02:44:22;;;;;;;106.25;60.15;;;;;;;12.18;95.10;94452.84;1556589;89;21062;-51
2022/10/25 02:46:48;;;;;;;117.45;66.20;;;;;;;12.10;94.54;94452.39;1545070;90;21058;-51
2022/10/25 02:49:15;;;;;;;125.10;69.53;;;;;;;12.05;94.61;94461.30;1547472;91;21335;-51
2022/10/25 02:51:41;;;;;;;142.55;74.82;;;;;;;12.03;94.70;94451.95;1551560;91;21002;-52
2022/10/25 02:54:09;;;;;;;154.10;75.78;;;;;;;12.02;94.98;94450.42;1519430;92;21018;-51
2022/10/25 02:56:36;;;;;;;175.12;80.83;;;;;;;12.01;94.59;94446.92;1551905;90;21150;-51
2022/10/25 02:59:04;;;;;;;183.85;86.28;;;;;;;12.01;94.43;94443.38;1541072;91;21240;-51
2022/10/25 03:01:31;;;;;;;176.18;94.22;;;;;;;12.00;94.60;94439.09;1557892;90;21292;-52
2022/10/25 03:03:57;;;;;;;151.22;82.08;;;;;;;11.97;94.58;94436.67;1551304;92;21050;-51
2022/10/25 03:06:24;;;;;;;133.93;71.33;;;;;;;11.97;94.57;94440.80;1544366;92;20994;-52
2022/10/25 03:08:51;;;;;;;115.20;68.05;;;;;;;11.95;94.31;94433.61;1543513;92;21036;-51
2022/10/25 03:11:17;;;;;;;159.15;88.47;;;;;;;11.95;94.09;94444.64;1547937;92;21058;-51
2022/10/25 03:13:44;;;;;;;155.45;91.95;;;;;;;11.95;94.36;94441.89;1545043;92;21283;-51
2022/10/25 03:16:11;;;;;;;125.33;76.55;;;;;;;11.92;94.15;94442.78;1542893;92;21091;-50
2022/10/25 03:18:39;;;;;;;139.25;75.80;;;;;;;11.88;94.39;94446.95;1559910;90;21269;-52
2022/10/25 03:21:07;;;;;;;172.25;87.02;;;;;;;11.84;94.42;94440.81;1527380;91;21093;-52
2022/10/25 03:23:34;;;;;;;144.05;78.07;;;;;;;11.78;94.29;94450.94;1527077;92;21094;-52
2022/10/25 03:26:01;;;;;;;153.68;83.05;;;;;;;11.75;94.93;94447.09;1557937;90;21219;-51
2022/10/25 03:28:28;;;;;;;144.47;78.57;;;;;;;11.72;94.92;94448.02;1554229;90;21204;-51
2022/10/25 03:30:56;;;;;;;139.37;79.42;;;;;;;11.70;94.92;94444.22;1535262;92;21144;-50
2022/10/25 03:33:24;;;;;;;135.72;70.40;;;;;;;11.66;94.82;94438.86;1564702;90;21051;-52
2022/10/25 03:35:53;;;;;;;134.67;72.87;;;;;;;11.64;94.97;94443.29;1538142;92;21260;-51
2022/10/25 03:38:20;;;;;;;128.70;68.42;;;;;;;11.61;95.25;94440.86;1531232;92;21284;-53
2022/10/25 03:40:47;;;;;;;124.05;67.78;;;;;;;11.62;95.54;94439.64;1525691;92;21102;-54
2022/10/25 03:43:14;;;;;;;120.08;63.85;;;;;;;11.54;95.46;94445.25;1545341;90;21040;-51
2022/10/25 03:45:41;;;;;;;109.97;61.18;;;;;;;11.46;95.52;94448.19;1550295;90;20994;-53
2022/10/25 03:48:09;;;;;;;119.45;63.73;;;;;;;11.39;95.38;94433.32;1565313;90;21054;-52
2022/10/25 03:50:36;;;;;;;114.15;66.75;;;;;;;11.35;95.75;94438.22;1525707;92;21125;-51
2022/10/25 03:53:04;;;;;;;123.78;68.90;;;;;;;11.36;95.95;94437.63;1569757;90;21193;-53
2022/10/25 03:55:32;;;;;;;132.35;72.85;;;;;;;11.37;96.04;94433.65;1549545;90;21077;-51
2022/10/25 03:57:58;;;;;;;145.65;72.70;;;;;;;11.35;96.12;94433.34;1506193;92;21021;-51
2022/10/25 04:00:26;;;;;;;144.10;68.83;;;;;;;11.34;96.12;94433.19;1547408;89;21054;-52
2022/10/25 04:02:57;;;;;;;146.90;72.97;;;;;;;11.34;96.00;94436.70;1552698;91;21217;-51
2022/10/25 04:05:23;;;;;;;162.15;79.12;;;;;;;11.32;95.79;94431.52;1562322;90;20995;-51
2022/10/25 04:07:51;;;;;;;250.43;107.30;;;;;;;11.26;95.73;94425.06;1530002;92;21157;-51
2022/10/25 04:10:18;;;;;;;212.72;82.88;;;;;;;11.21;95.50;94429.19;1526319;92;21053;-51
2022/10/25 04:12:47;;;;;;;122.87;64.72;;;;;;;11.13;95.59;94438.23;1553277;90;21528;-50
2022/10/25 04:15:14;;;;;;;156.07;73.62;;;;;;;11.04;95.56;94427.98;1566461;90;21267;-51
2022/10/25 04:17:40;;;;;;;134.18;68.10;;;;;;;10.97;95.79;94424.13;1538259;91;21004;-51
2022/10/25 04:20:10;;;;;;;151.12;73.52;;;;;;;10.96;96.55;94430.86;1534087;92;21099;-50
2022/10/25 04:22:37;;;;;;;160.20;78.20;;;;;;;10.94;96.44;94426.42;1525050;91;21538;-51
2022/10/25 04:25:05;;;;;;;160.07;75.10;;;;;;;10.91;96.54;94421.84;1549108;90;21519;-53
2022/10/25 04:27:32;;;;;;;165.57;76.07;;;;;;;10.92;96.68;94420.62;1562842;90;21937;-54
2022/10/25 04:29:59;;;;;;;126.62;65.10;;;;;;;10.91;96.47;94408.67;1549219;90;21067;-52
2022/10/25 04:32:26;;;;;;;140.57;69.75;;;;;;;10.91;96.93;94410.05;1547275;90;21074;-52
2022/10/25 04:34:53;;;;;;;184.85;89.25;;;;;;;10.93;97.00;94408.98;1523973;92;21589;-53
2022/10/25 04:37:20;;;;;;;198.45;91.15;;;;;;;10.94;96.88;94408.53;1553377;90;21371;-56
2022/10/25 04:39:47;;;;;;;191.57;94.30;;;;;;;10.92;96.96;94400.58;1536387;92;21285;-51
2022/10/25 04:42:13;;;;;;;209.27;102.05;;;;;;;10.97;97.04;94406.24;1537308;92;21523;-52
2022/10/25 04:44:41;;;;;;;150.38;75.90;;;;;;;11.02;97.04;94398.75;1545873;92;21003;-53
2022/10/25 04:47:08;;;;;;;122.35;64.00;;;;;;;11.06;96.89;94393.88;1552558;90;21110;-52
2022/10/25 04:49:35;;;;;;;172.32;83.62;;;;;;;11.06;96.61;94414.52;1549520;90;21114;-52
2022/10/25 04:52:02;;;;;;;184.48;86.57;;;;;;;11.00;96.39;94409.45;1560303;90;22167;-53
2022/10/25 04:54:29;;;;;;;194.13;86.00;;;;;;;10.96;96.36;94404.72;1529583;92;21108;-57
2022/10/25 04:56:56;;;;;;;199.23;92.05;;;;;;;10.97;96.32;94411.00;1529698;92;21146;-57
2022/10/25 04:59:23;;;;;;;185.28;84.85;;;;;;;10.98;96.86;94407.77;1547109;91;20998;-53
2022/10/25 05:01:50;;;;;;;222.75;90.05;;;;;;;11.08;97.27;94398.31;1548831;90;21507;-52
2022/10/25 05:04:16;;;;;;;182.72;88.07;;;;;;;11.19;97.42;94404.11;1561016;89;21251;-51
2022/10/25 05:06:43;;;;;;;177.05;81.75;;;;;;;11.24;96.89;94407.64;1563892;90;21186;-51
2022/10/25 05:09:11;;;;;;;149.55;70.57;;;;;;;11.27;96.54;94405.34;1561183;90;21119;-52
2022/10/25 05:11:37;;;;;;;123.30;64.17;;;;;;;11.33;96.19;94397.98;1550498;90;21042;-53
2022/10/25 05:14:04;;;;;;;115.55;62.67;;;;;;;11.32;95.46;94406.73;1549774;92;21054;-53
2022/10/25 05:16:33;;;;;;;123.05;66.20;;;;;;;11.27;95.51;94403.97;1552446;90;21263;-53
2022/10/25 05:19:01;;;;;;;124.75;65.25;;;;;;;11.30;95.67;94405.80;1544912;91;21035;-52
2022/10/25 05:21:29;;;;;;;114.10;60.12;;;;;;;11.30;95.45;94409.93;1560594;90;21059;-51
2022/10/25 05:23:57;;;;;;;113.30;62.30;;;;;;;11.32;95.56;94404.72;1549809;91;21130;-51
2022/10/25 05:26:24;;;;;;;112.45;61.92;;;;;;;11.37;95.76;94409.61;1564815;90;21063;-55
2022/10/25 05:28:53;;;;;;;122.92;61.92;;;;;;;11.52;96.79;94409.77;1528553;92;21228;-53
2022/10/25 05:31:23;;;;;;;134.82;74.65;;;;;;;11.64;96.12;94404.72;1538472;91;21113;-52
2022/10/25 05:33:52;;;;;;;146.80;77.85;;;;;;;11.68;95.85;94410.85;1562494;89;21492;-53
2022/10/25 05:36:19;;;;;;;135.52;72.58;;;;;;;11.75;96.09;94397.49;1571793;89;21096;-54
2022/10/25 05:38:46;;;;;;;109.42;61.92;;;;;;;11.85;96.17;94396.86;1569272;89;21081;-55
2022/10/25 05:41:15;;;;;;;130.50;71.15;;;;;;;11.95;96.08;94407.42;1567026;89;21460;-53
2022/10/25 05:43:42;;;;;;;121.90;65.87;;;;;;;12.03;95.93;94408.62;1566583;89;21126;-53
2022/10/25 05:46:22;;;;;;;116.17;64.40;;;;;;;12.05;94.93;94405.41;1547344;91;21090;-54
2022/10/25 05:48:50;;;;;;;119.90;67.40;;;;;;;11.97;94.23;94387.05;1579043;89;21030;-55
2022/10/25 05:51:22;;;;;;;120.53;64.90;;;;;;;11.90;93.92;94387.98;1574817;89;21047;-57
2022/10/25 05:53:55;;;;;;;126.10;72.47;;;;;;;11.86;94.28;94396.41;1568229;88;21983;-58
2022/10/25 05:56:25;;;;;;;136.00;75.35;;;;;;;11.92;94.92;94395.92;1565787;88;20962;-58
2022/10/25 05:58:53;;;;;;;134.57;75.28;;;;;;;12.06;95.49;94393.89;1564293;89;21078;-55
2022/10/25 06:01:20;;;;;;;109.25;66.12;;;;;;;12.19;95.15;94391.71;1566008;88;21149;-58
2022/10/25 06:03:57;;;;;;;101.58;63.30;;;;;;;12.35;94.96;94396.86;1569815;89;21380;-57
2022/10/25 06:06:26;;;;;;;120.20;72.50;;;;;;;12.47;94.16;94395.86;1548455;89;21176;-58
2022/10/25 06:08:58;;;;;;;114.70;65.60;;;;;;;12.57;94.48;94384.94;1538779;90;21061;-57
2022/10/25 06:11:30;;;;;;;94.65;57.23;;;;;;;12.73;94.24;94394.20;1575193;88;22181;-58
2022/10/25 06:13:58;;;;;;;95.28;54.73;;;;;;;12.87;93.71;94404.55;1546044;90;22492;-56
2022/10/25 06:16:26;;;;;;;116.90;70.70;;;;;;;13.03;93.40;94401.39;1544934;89;21065;-55
2022/10/25 06:18:54;;;;;;;126.85;75.85;;;;;;;13.18;92.22;94402.20;1520069;91;21279;-59
2022/10/25 06:21:24;;;;;;;138.82;90.42;;;;;;;13.29;91.80;94407.96;1540876;89;21430;-62
2022/10/25 06:23:52;;;;;;;134.12;82.00;;;;;;;13.45;91.86;94411.67;1561487;88;21075;-59
2022/10/25 06:26:21;;;;;;;125.95;72.92;;;;;;;13.58;91.29;94413.54;1568376;89;21169;-57
2022/10/25 06:28:55;;;;;;;119.82;78.70;;;;;;;13.61;90.41;94409.84;1567966;89;21680;-56
2022/10/25 06:31:22;;;;;;;112.70;76.37;;;;;;;13.57;89.91;94407.87;1568379;89;25112;-56
2022/10/25 06:33:51;;;;;;;131.30;88.35;;;;;;;13.49;90.07;94409.48;1581326;88;21143;-54
2022/10/25 06:36:23;;;;;;;132.00;84.58;;;;;;;13.42;90.68;94417.52;1538346;91;22472;-51
2022/10/25 06:38:50;;;;;;;124.38;80.62;;;;;;;13.43;91.01;94423.19;1564917;89;21589;-53
2022/10/25 06:41:23;;;;;;;118.65;75.62;;;;;;;13.48;91.37;94422.52;1569486;89;21096;-54
2022/10/25 06:43:50;;;;;;;105.10;71.62;;;;;;;13.58;91.23;94421.23;1588487;88;21446;-57
2022/10/25 06:46:27;;;;;;;126.18;76.80;;;;;;;13.70;91.18;94419.43;1574866;88;21427;-53
2022/10/25 06:48:55;;;;;;;107.22;76.92;;;;;;;13.77;90.79;94413.52;1562482;89;21052;-53
2022/10/25 06:51:22;;;;;;;147.47;91.92;;;;;;;13.79;90.75;94410.43;1564622;89;21057;-54
2022/10/25 06:54:00;;;;;;;138.32;89.42;;;;;;;13.85;90.87;94405.00;1580534;88;21227;-57
2022/10/25 06:56:28;;;;;;;111.85;71.12;;;;;;;13.92;91.17;94408.77;1565142;89;21191;-59
2022/10/25 06:58:55;;;;;;;87.33;55.12;;;;;;;14.01;91.08;94399.75;1531789;90;21102;-58
2022/10/25 07:01:23;;;;;;;75.80;49.18;;;;;;;14.13;91.63;94404.84;1541441;91;21210;-56
2022/10/25 07:03:53;;;;;;;71.97;49.42;;;;;;;14.25;91.37;94408.76;1549772;91;21119;-53
2022/10/25 07:06:27;;;;;;;93.75;60.70;;;;;;;14.35;90.87;94410.16;1550423;90;21096;-57
2022/10/25 07:09:01;;;;;;;;;;;;;;;14.36;90.41;94404.77;1561020;89;21206;-61
2022/10/25 07:11:28;;;;;;;103.38;66.47;;;;;;;14.29;89.88;94414.08;1585753;89;20707;-54
2022/10/25 07:14:03;;;;;;;105.25;68.42;;;;;;;14.17;89.86;94402.06;1561300;88;21600;-60
2022/10/25 07:16:33;;;;;;;96.22;62.58;;;;;;;14.14;90.20;94396.72;1543798;90;21086;-59
2022/10/25 07:19:02;;;;;;;101.35;66.80;;;;;;;14.14;90.21;94395.34;1531829;91;22311;-55
2022/10/25 07:21:31;;;;;;;86.42;55.80;;;;;;;14.09;90.33;94397.37;1554286;90;21355;-55
2022/10/25 07:23:59;;;;;;;82.85;56.00;;;;;;;14.05;90.42;94395.42;1571940;89;21107;-55
2022/10/25 07:26:30;;;;;;;87.78;54.50;;;;;;;14.02;90.54;94392.98;1573191;89;21129;-57
2022/10/25 07:28:57;;;;;;;83.12;60.60;;;;;;;13.95;90.74;94393.98;1562760;89;21319;-56
2022/10/25 07:31:31;;;;;;;75.97;51.28;;;;;;;13.87;91.37;94399.16;1550664;89;21504;-58
2022/10/25 07:33:59;;;;;;;70.70;45.55;;;;;;;13.87;91.93;94396.99;1548055;90;21252;-55
2022/10/25 07:36:28;;;;;;;68.30;46.08;;;;;;;13.84;92.14;94392.42;1553362;90;21139;-53
2022/10/25 07:38:57;;;;;;;70.95;46.92;;;;;;;13.81;92.39;94390.61;1536160;90;21059;-58
2022/10/25 07:41:24;;;;;;;72.05;47.65;;;;;;;13.83;92.86;94393.66;1525728;92;21125;-57
2022/10/25 07:43:51;;;;;;;81.78;48.68;;;;;;;13.85;93.48;94394.69;1570771;89;21221;-54
2022/10/25 07:46:20;;;;;;;69.72;48.00;;;;;;;13.88;93.79;94386.85;1575844;88;21424;-56
2022/10/25 07:48:47;;;;;;;67.72;45.58;;;;;;;13.94;94.16;94395.22;1580927;88;21528;-55
2022/10/25 07:51:16;;;;;;;68.95;45.03;;;;;;;14.02;94.06;94392.23;1569722;89;21451;-58
2022/10/25 07:53:43;;;;;;;68.70;45.80;;;;;;;14.04;93.70;94379.45;1561203;89;21566;-55
2022/10/25 07:56:15;;;;;;;72.40;47.93;;;;;;;14.04;93.86;94382.23;1544867;90;21087;-56
2022/10/25 07:58:42;;;;;;;71.45;50.50;;;;;;;14.10;94.35;94375.37;1573632;88;21157;-58
2022/10/25 08:01:11;;;;;;;70.12;49.50;;;;;;;14.18;94.67;94377.95;1572646;89;20974;-62
2022/10/25 08:03:39;;;;;;;68.30;47.50;;;;;;;14.25;94.46;94380.31;1570967;89;21058;-60
2022/10/25 08:06:06;;;;;;;67.53;46.23;;;;;;;14.29;94.63;94376.72;1544767;89;21108;-57
2022/10/25 08:08:36;;;;;;;72.08;50.33;;;;;;;14.35;95.19;94371.42;1584199;89;21188;-59
2022/10/25 08:11:06;;;;;;;78.33;52.13;;;;;;;14.46;95.30;94369.58;1569619;89;21135;-56
2022/10/25 08:13:32;;;;;;;66.90;46.20;;;;;;;14.63;95.26;94374.73;1569558;88;21025;-60
2022/10/25 08:16:00;;;;;;;46.85;33.38;;;;;;;14.76;94.50;94379.34;1546569;89;21168;-61
2022/10/25 08:18:29;;;;;;;59.70;39.42;;;;;;;14.83;93.34;94380.94;1573031;89;21078;-55
2022/10/25 08:20:56;;;;;;;63.25;42.90;;;;;;;14.81;92.79;94380.66;1558823;90;21091;-55
2022/10/25 08:23:24;;;;;;;61.08;42.27;;;;;;;14.76;92.26;94376.56;1564359;89;21105;-56
2022/10/25 08:25:51;;;;;;;69.40;42.48;;;;;;;14.71;91.95;94375.87;1582037;89;21025;-59
2022/10/25 08:28:20;;;;;;;78.60;46.63;;;;;;;14.66;92.07;94372.38;1577253;89;21343;-56
2022/10/25 08:30:46;;;;;;;74.32;47.23;;;;;;;14.68;91.98;94371.91;1553837;89;21153;-58
2022/10/25 08:33:14;;;;;;;88.78;57.40;;;;;;;14.66;92.05;94366.84;1581500;88;21140;-56
2022/10/25 08:35:42;;;;;;;94.62;67.27;;;;;;;14.67;92.38;94375.29;1549475;90;21203;-57
2022/10/25 08:38:09;;;;;;;76.12;51.15;;;;;;;14.70;93.04;94375.73;1578987;89;21038;-57
2022/10/25 08:41:03;;;;;;;64.95;45.52;;;;;;;14.73;93.19;94376.16;1543630;90;21049;-56
2022/10/25 08:43:57;;;;;;;68.25;43.13;;;;;;;14.75;93.30;94375.66;1572823;88;21112;-56
2022/10/25 08:46:37;;;;;;;73.92;44.58;;;;;;;14.81;93.41;94375.13;1569353;89;21140;-58
2022/10/25 08:49:25;;;;;;;69.15;46.68;;;;;;;14.82;93.01;94378.78;1570741;89;22071;-58
2022/10/25 08:51:53;;;;;;;65.60;42.33;;;;;;;14.78;93.04;94381.00;1571747;89;21116;-55
2022/10/25 08:54:36;;;;;;;51.10;35.28;;;;;;;14.73;93.31;94374.77;1571146;88;21126;-60
2022/10/25 08:57:25;;;;;;;56.18;36.83;;;;;;;14.71;93.33;94373.11;1555548;88;21598;-56
2022/10/25 08:59:58;;;;;;;60.80;40.15;;;;;;;14.72;93.19;94377.40;1567065;89;21067;-57
2022/10/25 09:02:42;;;;;;;57.43;35.98;;;;;;;14.71;93.44;94381.41;1575481;88;21275;-59
2022/10/25 09:05:23;;;;;;;73.28;44.93;;;;;;;14.72;93.53;94376.02;1567679;89;21569;-59
2022/10/25 09:08:16;;;;;;;66.15;42.95;;;;;;;14.71;93.46;94384.19;1572450;89;21415;-59
2022/10/25 09:11:34;;;;;;;65.03;42.78;;;;;;;14.77;93.57;94385.63;1568768;89;21692;-58
2022/10/25 09:14:37;;;;;;;69.97;44.83;;;;;;;14.80;93.48;94392.35;1542856;91;21046;-54
2022/10/25 09:17:22;;;;;;;55.13;34.77;;;;;;;14.81;93.67;94388.97;1537254;90;21125;-58
2022/10/25 09:20:01;;;;;;;;;;;;;;;14.78;93.48;94394.09;1545240;91;21167;-53
2022/10/25 09:22:38;;;;;;;53.42;31.77;;;;;;;14.78;93.51;94392.08;1553529;90;20267;-56
2022/10/25 09:25:38;;;;;;;47.30;34.33;;;;;;;14.83;93.36;94397.56;1523355;92;21238;-57
2022/10/25 09:28:16;;;;;;;66.15;39.27;;;;;;;14.91;93.53;94391.73;1522338;91;21450;-59
2022/10/25 09:30:45;;;;;;;66.15;42.13;;;;;;;14.97;93.38;94390.58;1537076;91;21142;-58
2022/10/25 09:33:15;;;;;;;59.98;40.73;;;;;;;14.99;93.38;94397.77;1575235;88;21165;-57
2022/10/25 09:35:54;;;;;;;65.85;40.28;;;;;;;15.01;93.32;94393.89;1569022;89;21230;-54
2022/10/25 09:39:06;;;;;;;74.03;47.88;;;;;;;15.01;93.25;94388.99;1543963;89;21033;-57
2022/10/25 09:41:41;;;;;;;56.37;41.08;;;;;;;15.05;93.43;94393.09;1515425;92;21638;-56
2022/10/25 09:44:37;;;;;;;58.25;37.28;;;;;;;15.10;93.24;94395.16;1537130;89;21320;-55
2022/10/25 09:47:25;;;;;;;50.98;33.75;;;;;;;15.11;93.20;94399.45;1566372;88;21167;-60
2022/10/25 09:50:23;;;;;;;37.55;27.35;;;;;;;15.16;93.59;94401.53;1580484;88;21092;-57
2022/10/25 09:53:01;;;;;;;48.48;33.35;;;;;;;15.26;93.05;94401.55;1572357;89;21020;-56
2022/10/25 09:55:39;;;;;;;58.63;37.25;;;;;;;15.28;92.64;94403.20;1562977;88;21320;-61
2022/10/25 09:58:21;;;;;;;64.32;38.95;;;;;;;15.26;92.79;94407.08;1585742;88;21160;-62
2022/10/25 10:00:51;;;;;;;67.03;42.25;;;;;;;15.25;92.85;94408.33;1556729;90;21075;-61
2022/10/25 10:03:18;;;;;;;65.78;39.27;;;;;;;15.20;93.12;94404.84;1564718;89;21114;-57
2022/10/25 10:05:58;;;;;;;67.35;40.65;;;;;;;15.21;93.34;94404.23;1580016;89;21495;-57
2022/10/25 10:08:26;;;;;;;65.50;44.15;;;;;;;15.24;93.56;94403.27;1575090;88;21105;-62
2022/10/25 10:10:53;;;;;;;69.03;46.10;;;;;;;15.26;93.92;94402.92;1577233;87;21912;-58
2022/10/25 10:13:35;;;;;;;73.92;47.05;;;;;;;15.26;94.06;94397.38;1561474;89;21097;-53
2022/10/25 10:16:05;;;;;;;72.47;45.67;;;;;;;15.24;94.13;94397.11;1554577;90;21022;-56
2022/10/25 10:18:34;;;;;;;75.35;47.83;;;;;;;15.18;94.33;94395.52;1578177;88;21195;-53
2022/10/25 10:21:11;;;;;;;68.05;48.00;;;;;;;15.15;94.76;94403.41;1579217;89;21046;-55
2022/10/25 10:23:52;;;;;;;69.20;46.90;;;;;;;15.20;95.45;94402.72;1543688;91;21342;-57
2022/10/25 10:26:27;;;;;;;63.48;41.90;;;;;;;15.20;95.72;94396.53;1549865;89;21082;-56
2022/10/25 10:29:13;;;;;;;61.58;41.08;;;;;;;15.26;96.01;94397.38;1532551;92;21154;-56
2022/10/25 10:31:43;;;;;;;71.70;45.35;;;;;;;15.32;95.40;94396.84;1567265;89;21113;-59
2022/10/25 10:34:32;;;;;;;70.55;47.67;;;;;;;15.37;95.27;94393.38;1590281;88;21002;-58
2022/10/25 10:37:13;;;;;;;71.70;45.57;;;;;;;15.46;95.60;94396.63;1561760;89;21336;-57
2022/10/25 10:39:54;;;;;;;70.72;46.25;;;;;;;15.57;95.31;94393.99;1593023;88;21091;-56
2022/10/25 10:42:36;;;;;;;64.12;43.42;;;;;;;15.61;94.93;94395.31;1606758;88;21550;-57
2022/10/25 10:45:11;;;;;;;74.60;51.10;;;;;;;15.63;94.52;94400.35;1584704;88;21057;-55
2022/10/25 10:47:54;;;;;;;79.27;54.35;;;;;;;15.65;95.07;94391.69;1589567;88;21104;-56
2022/10/25 10:50:27;;;;;;;75.25;51.80;;;;;;;15.74;95.14;94392.16;1593006;88;21206;-58
2022/10/25 10:53:08;;;;;;;73.07;46.92;;;;;;;15.77;94.48;94389.16;1599547;88;21054;-54
2022/10/25 10:55:39;;;;;;;66.00;45.43;;;;;;;15.83;94.69;94395.53;1587802;88;21105;-55
2022/10/25 10:58:34;;;;;;;72.05;48.70;;;;;;;15.93;94.41;94388.56;1566901;90;21067;-57
2022/10/25 11:01:03;;;;;;;80.50;53.17;;;;;;;16.00;93.69;94390.92;1555575;89;21045;-58
2022/10/25 11:03:42;;;;;;;74.15;51.53;;;;;;;16.06;93.44;94394.50;1561879;90;21499;-54
2022/10/25 11:06:19;;;;;;;66.62;46.77;;;;;;;16.09;92.97;94406.64;1530981;90;21736;-54
2022/10/25 11:08:47;;;;;;;79.80;55.55;;;;;;;16.10;92.68;94402.61;1494970;91;21301;-57
2022/10/25 11:11:20;;;;;;;86.70;55.48;;;;;;;16.11;92.66;94409.05;1586346;89;21023;-54
2022/10/25 11:13:56;;;;;;;67.65;50.48;;;;;;;16.19;92.74;94409.37;1553721;91;21224;-55
2022/10/25 11:16:52;;;;;;;73.80;52.43;;;;;;;16.24;92.24;94411.45;1552161;90;21172;-55
2022/10/25 11:19:44;;;;;;;77.85;51.98;;;;;;;16.26;91.53;94402.00;1581767;88;21109;-56
2022/10/25 11:22:22;;;;;;;72.80;51.53;;;;;;;16.19;91.33;94410.14;1565796;89;21185;-55
2022/10/25 11:25:29;;;;;;;77.80;52.73;;;;;;;16.14;91.40;94415.02;1557632;89;20960;-59
2022/10/25 11:28:42;;;;;;;87.35;58.13;;;;;;;16.15;92.13;94409.61;1500628;93;21163;-56
2022/10/25 11:31:34;;;;;;;93.00;66.67;;;;;;;16.17;92.13;94411.27;1570781;89;21182;-55
2022/10/25 11:34:23;;;;;;;92.70;64.60;;;;;;;16.20;92.12;94415.83;1570973;89;28187;-59
2022/10/25 11:37:14;;;;;;;89.22;59.30;;;;;;;16.17;92.08;94417.42;1542412;89;21176;-53
2022/10/25 11:39:58;;;;;;;85.70;58.23;;;;;;;16.15;92.44;94419.32;1563279;89;21102;-58
2022/10/25 11:42:46;;;;;;;77.62;53.78;;;;;;;16.19;92.80;94423.24;1554039;89;21171;-56